sensor_id;sensor_type;location;lat;lon;timestamp;pressure;altitude;pressure_sealevel;temperature;humidity
39699;BME280;25372;50.582;12.250;2023-02-15T00:00:25;101398.53;;;-2.88;100.00
39699;BME280;25372;50.582;12.250;2023-02-15T00:10:46;101404.22;;;-2.78;100.00
39699;BME280;25372;50.582;12.250;2023-02-15T00:21:09;101395.19;;;-2.46;100.00
39699;BME280;25372;50.582;12.250;2023-02-15T00:31:30;101369.19;;;-2.90;100.00
39699;BME280;25372;50.582;12.250;2023-02-15T00:41:52;101392.75;;;-2.73;100.00
39699;BME280;25372;50.582;12.250;2023-02-15T00:52:13;101374.41;;;-2.68;100.00
39699;BME280;25372;50.582;12.250;2023-02-15T01:02:36;101368.84;;;-2.81;100.00
39699;BME280;25372;50.582;12.250;2023-02-15T01:12:57;101354.00;;;-3.00;100.00
39699;BME280;25372;50.582;12.250;2023-02-15T01:23:19;101355.31;;;-3.11;100.00
39699;BME280;25372;50.582;12.250;2023-02-15T01:33:40;101347.19;;;-3.02;100.00
39699;BME280;25372;50.582;12.250;2023-02-15T01:54:57;101322.38;;;-2.87;100.00
39699;BME280;25372;50.582;12.250;2023-02-15T02:05:18;101305.47;;;-3.20;100.00
39699;BME280;25372;50.582;12.250;2023-02-15T02:15:47;101293.41;;;-3.21;100.00
39699;BME280;25372;50.582;12.250;2023-02-15T02:26:44;101291.56;;;-2.95;100.00
39699;BME280;25372;50.582;12.250;2023-02-15T02:37:17;101280.41;;;-2.97;100.00
39699;BME280;25372;50.582;12.250;2023-02-15T02:47:43;101280.63;;;-3.03;100.00
39699;BME280;25372;50.582;12.250;2023-02-15T02:58:11;101271.53;;;-3.13;100.00
39699;BME280;25372;50.582;12.250;2023-02-15T03:08:38;101261.53;;;-3.23;100.00
39699;BME280;25372;50.582;12.250;2023-02-15T03:19:06;101272.72;;;-3.22;100.00
39699;BME280;25372;50.582;12.250;2023-02-15T03:29:29;101274.09;;;-3.36;100.00
39699;BME280;25372;50.582;12.250;2023-02-15T03:39:54;101267.41;;;-3.41;100.00
39699;BME280;25372;50.582;12.250;2023-02-15T03:50:38;101262.91;;;-3.36;100.00
39699;BME280;25372;50.582;12.250;2023-02-15T04:01:25;101262.47;;;-3.25;100.00
39699;BME280;25372;50.582;12.250;2023-02-15T04:12:05;101267.59;;;-3.46;100.00
39699;BME280;25372;50.582;12.250;2023-02-15T04:22:27;101259.44;;;-3.59;100.00
39699;BME280;25372;50.582;12.250;2023-02-15T04:33:05;101255.78;;;-3.31;100.00
39699;BME280;25372;50.582;12.250;2023-02-15T04:43:27;101255.78;;;-3.31;100.00
39699;BME280;25372;50.582;12.250;2023-02-15T04:53:48;101246.56;;;-3.16;100.00
39699;BME280;25372;50.582;12.250;2023-02-15T05:04:10;101232.06;;;-3.44;100.00
39699;BME280;25372;50.582;12.250;2023-02-15T05:14:30;101231.53;;;-3.52;100.00
39699;BME280;25372;50.582;12.250;2023-02-15T05:24:52;101222.50;;;-3.42;100.00
39699;BME280;25372;50.582;12.250;2023-02-15T05:35:31;101209.00;;;-3.28;100.00
39699;BME280;25372;50.582;12.250;2023-02-15T05:45:54;101225.47;;;-3.29;100.00
39699;BME280;25372;50.582;12.250;2023-02-15T05:56:15;101225.94;;;-3.19;100.00
39699;BME280;25372;50.582;12.250;2023-02-15T06:06:37;101221.13;;;-3.28;100.00
39699;BME280;25372;50.582;12.250;2023-02-15T06:16:58;101219.78;;;-3.39;100.00
39699;BME280;25372;50.582;12.250;2023-02-15T06:27:20;101227.50;;;-3.37;100.00
39699;BME280;25372;50.582;12.250;2023-02-15T06:37:41;101167.38;;;-3.03;100.00
39699;BME280;25372;50.582;12.250;2023-02-15T06:48:03;101224.75;;;-2.90;100.00
39699;BME280;25372;50.582;12.250;2023-02-15T06:58:26;101214.38;;;-2.90;100.00
39699;BME280;25372;50.582;12.250;2023-02-15T07:08:48;101211.03;;;-2.71;100.00
39699;BME280;25372;50.582;12.250;2023-02-15T07:19:08;101198.69;;;-2.25;100.00
39699;BME280;25372;50.582;12.250;2023-02-15T07:29:30;101177.16;;;-1.70;100.00
39699;BME280;25372;50.582;12.250;2023-02-15T07:39:51;101174.22;;;-1.45;100.00
39699;BME280;25372;50.582;12.250;2023-02-15T07:50:13;101150.69;;;-1.24;100.00
39699;BME280;25372;50.582;12.250;2023-02-15T08:00:34;101138.09;;;-0.97;100.00
39699;BME280;25372;50.582;12.250;2023-02-15T08:11:18;101117.25;;;-0.79;100.00
39699;BME280;25372;50.582;12.250;2023-02-15T08:21:50;101120.41;;;-0.39;100.00
39699;BME280;25372;50.582;12.250;2023-02-15T08:32:12;101123.13;;;-0.25;100.00
39699;BME280;25372;50.582;12.250;2023-02-15T08:42:33;101105.91;;;0.05;100.00
39699;BME280;25372;50.582;12.250;2023-02-15T08:52:55;101104.75;;;0.25;100.00
39699;BME280;25372;50.582;12.250;2023-02-15T09:03:16;101099.38;;;0.44;100.00
39699;BME280;25372;50.582;12.250;2023-02-15T09:13:38;101090.53;;;0.77;100.00
39699;BME280;25372;50.582;12.250;2023-02-15T09:24:02;101089.03;;;1.46;100.00
39699;BME280;25372;50.582;12.250;2023-02-15T09:34:25;101076.06;;;1.59;100.00
39699;BME280;25372;50.582;12.250;2023-02-15T09:44:59;101060.78;;;1.95;100.00
39699;BME280;25372;50.582;12.250;2023-02-15T09:55:42;101055.34;;;2.25;100.00
39699;BME280;25372;50.582;12.250;2023-02-15T10:06:27;101053.41;;;2.41;100.00
39699;BME280;25372;50.582;12.250;2023-02-15T10:16:56;101039.66;;;2.78;100.00
39699;BME280;25372;50.582;12.250;2023-02-15T10:27:21;101022.91;;;3.06;100.00
39699;BME280;25372;50.582;12.250;2023-02-15T10:38:03;101010.63;;;3.33;100.00
39699;BME280;25372;50.582;12.250;2023-02-15T10:48:37;100995.06;;;3.79;98.50
39699;BME280;25372;50.582;12.250;2023-02-15T10:59:18;100990.06;;;4.00;96.69
39699;BME280;25372;50.582;12.250;2023-02-15T11:09:44;100972.22;;;4.17;94.10
39699;BME280;25372;50.582;12.250;2023-02-15T11:20:16;100957.94;;;4.21;92.63
39699;BME280;25372;50.582;12.250;2023-02-15T11:30:42;100954.63;;;4.42;92.89
39699;BME280;25372;50.582;12.250;2023-02-15T11:41:08;100943.81;;;4.80;87.81
39699;BME280;25372;50.582;12.250;2023-02-15T11:51:29;100925.53;;;4.79;88.31
39699;BME280;25372;50.582;12.250;2023-02-15T12:01:52;100922.19;;;5.22;84.86
39699;BME280;25372;50.582;12.250;2023-02-15T12:12:24;100904.84;;;5.31;85.25
39699;BME280;25372;50.582;12.250;2023-02-15T12:22:50;100900.25;;;5.55;83.21
39699;BME280;25372;50.582;12.250;2023-02-15T12:33:17;100887.06;;;5.67;82.67
39699;BME280;25372;50.582;12.250;2023-02-15T12:43:43;100874.06;;;5.54;82.86
39699;BME280;25372;50.582;12.250;2023-02-15T12:54:16;100857.41;;;5.65;81.35
39699;BME280;25372;50.582;12.250;2023-02-15T13:04:47;100850.28;;;5.76;79.92
39699;BME280;25372;50.582;12.250;2023-02-15T13:15:24;100863.31;;;5.78;80.60
39699;BME280;25372;50.582;12.250;2023-02-15T13:25:47;100852.00;;;5.45;82.00
39699;BME280;25372;50.582;12.250;2023-02-15T13:36:15;100851.72;;;5.48;80.51
39699;BME280;25372;50.582;12.250;2023-02-15T13:46:55;100848.63;;;5.43;79.27
39699;BME280;25372;50.582;12.250;2023-02-15T13:57:37;100864.75;;;5.17;81.21
39699;BME280;25372;50.582;12.250;2023-02-15T14:08:11;100857.22;;;5.13;80.73
39699;BME280;25372;50.582;12.250;2023-02-15T14:18:37;100851.13;;;5.01;81.40
39699;BME280;25372;50.582;12.250;2023-02-15T14:29:10;100843.06;;;4.81;82.66
39699;BME280;25372;50.582;12.250;2023-02-15T14:39:42;100847.00;;;4.64;83.45
39699;BME280;25372;50.582;12.250;2023-02-15T14:50:41;100845.47;;;4.50;83.67
39699;BME280;25372;50.582;12.250;2023-02-15T15:01:05;100854.19;;;4.28;85.62
39699;BME280;25372;50.582;12.250;2023-02-15T15:11:47;100857.09;;;4.01;86.35
39699;BME280;25372;50.582;12.250;2023-02-15T15:22:17;100862.25;;;3.67;88.42
39699;BME280;25372;50.582;12.250;2023-02-15T15:32:41;100850.59;;;3.47;88.84
39699;BME280;25372;50.582;12.250;2023-02-15T15:43:31;100837.66;;;2.84;92.45
39699;BME280;25372;50.582;12.250;2023-02-15T15:53:57;100844.50;;;2.48;94.76
39699;BME280;25372;50.582;12.250;2023-02-15T16:04:25;100840.41;;;1.80;97.46
39699;BME280;25372;50.582;12.250;2023-02-15T16:14:48;100838.19;;;1.06;100.00
39699;BME280;25372;50.582;12.250;2023-02-15T16:25:31;100844.69;;;1.41;100.00
39699;BME280;25372;50.582;12.250;2023-02-15T16:35:58;100840.34;;;0.99;100.00
39699;BME280;25372;50.582;12.250;2023-02-15T16:46:25;100847.31;;;0.57;100.00
39699;BME280;25372;50.582;12.250;2023-02-15T16:56:48;100848.59;;;0.21;100.00
39699;BME280;25372;50.582;12.250;2023-02-15T17:07:15;100843.69;;;0.31;100.00
39699;BME280;25372;50.582;12.250;2023-02-15T17:17:38;100848.19;;;-0.02;100.00
39699;BME280;25372;50.582;12.250;2023-02-15T17:27:59;100861.75;;;-0.41;100.00
39699;BME280;25372;50.582;12.250;2023-02-15T17:38:20;100861.75;;;-0.41;100.00
39699;BME280;25372;50.582;12.250;2023-02-15T17:48:41;100857.19;;;-0.22;100.00
39699;BME280;25372;50.582;12.250;2023-02-15T17:59:04;100855.59;;;-0.71;100.00
39699;BME280;25372;50.582;12.250;2023-02-15T18:09:26;100858.31;;;-0.88;100.00
39699;BME280;25372;50.582;12.250;2023-02-15T18:20:15;100852.53;;;-0.93;100.00
39699;BME280;25372;50.582;12.250;2023-02-15T18:30:38;100853.34;;;-0.93;100.00
39699;BME280;25372;50.582;12.250;2023-02-15T18:41:02;100848.72;;;-1.03;100.00
39699;BME280;25372;50.582;12.250;2023-02-15T18:51:24;100855.41;;;-1.31;100.00
39699;BME280;25372;50.582;12.250;2023-02-15T19:01:46;100852.09;;;-1.67;100.00
39699;BME280;25372;50.582;12.250;2023-02-15T19:12:10;100840.53;;;-1.61;100.00
39699;BME280;25372;50.582;12.250;2023-02-15T19:22:33;100846.25;;;-1.38;100.00
39699;BME280;25372;50.582;12.250;2023-02-15T19:32:55;100847.22;;;-1.39;100.00
39699;BME280;25372;50.582;12.250;2023-02-15T19:43:19;100832.97;;;-1.66;100.00
39699;BME280;25372;50.582;12.250;2023-02-15T19:53:42;100818.91;;;-1.79;100.00
39699;BME280;25372;50.582;12.250;2023-02-15T20:04:04;100815.44;;;-1.96;100.00
39699;BME280;25372;50.582;12.250;2023-02-15T20:14:24;100796.94;;;-1.89;100.00
39699;BME280;25372;50.582;12.250;2023-02-15T20:24:46;100792.06;;;-1.96;100.00
39699;BME280;25372;50.582;12.250;2023-02-15T20:35:11;100788.19;;;-1.71;100.00
39699;BME280;25372;50.582;12.250;2023-02-15T20:45:33;100787.16;;;-1.84;100.00
39699;BME280;25372;50.582;12.250;2023-02-15T20:55:54;100783.28;;;-1.93;100.00
39699;BME280;25372;50.582;12.250;2023-02-15T21:06:17;100780.41;;;-2.04;100.00
39699;BME280;25372;50.582;12.250;2023-02-15T21:16:38;100770.50;;;-2.14;100.00
39699;BME280;25372;50.582;12.250;2023-02-15T21:27:01;100776.03;;;-2.37;100.00
39699;BME280;25372;50.582;12.250;2023-02-15T21:37:27;100765.63;;;-2.37;100.00
39699;BME280;25372;50.582;12.250;2023-02-15T21:47:51;100761.75;;;-2.46;100.00
39699;BME280;25372;50.582;12.250;2023-02-15T21:58:17;100765.16;;;-2.81;100.00
39699;BME280;25372;50.582;12.250;2023-02-15T22:08:39;100752.03;;;-2.60;100.00
39699;BME280;25372;50.582;12.250;2023-02-15T22:19:00;100765.75;;;-2.23;100.00
39699;BME280;25372;50.582;12.250;2023-02-15T22:29:22;100760.56;;;-2.23;100.00
39699;BME280;25372;50.582;12.250;2023-02-15T22:39:43;100744.25;;;-2.60;100.00
39699;BME280;25372;50.582;12.250;2023-02-15T22:50:14;100757.53;;;-2.31;100.00
39699;BME280;25372;50.582;12.250;2023-02-15T23:00:38;100764.38;;;-2.65;100.00
39699;BME280;25372;50.582;12.250;2023-02-15T23:11:00;100760.72;;;-2.78;100.00
39699;BME280;25372;50.582;12.250;2023-02-15T23:21:24;100766.06;;;-2.82;100.00
39699;BME280;25372;50.582;12.250;2023-02-15T23:31:48;100767.09;;;-3.03;100.00
39699;BME280;25372;50.582;12.250;2023-02-15T23:42:11;100765.31;;;-2.84;100.00
39699;BME280;25372;50.582;12.250;2023-02-15T23:52:34;100765.19;;;-3.36;100.00
